sensor_id;sensor_type;location;lat;lon;timestamp;temperature;humidity
21035;DHT22;10676;50.848;3.272;2022-09-24T00:00:56;14.10;99.90
21035;DHT22;10676;50.848;3.272;2022-09-24T00:03:23;14.10;99.90
21035;DHT22;10676;50.848;3.272;2022-09-24T00:05:50;14.10;99.90
21035;DHT22;10676;50.848;3.272;2022-09-24T00:08:17;14.10;99.90
21035;DHT22;10676;50.848;3.272;2022-09-24T00:10:45;14.10;99.90
21035;DHT22;10676;50.848;3.272;2022-09-24T00:13:14;14.10;99.90
21035;DHT22;10676;50.848;3.272;2022-09-24T00:15:43;14.10;99.90
21035;DHT22;10676;50.848;3.272;2022-09-24T00:18:09;14.10;99.90
21035;DHT22;10676;50.848;3.272;2022-09-24T00:20:37;14.20;99.90
21035;DHT22;10676;50.848;3.272;2022-09-24T00:23:04;14.10;99.90
21035;DHT22;10676;50.848;3.272;2022-09-24T00:25:30;14.20;99.90
21035;DHT22;10676;50.848;3.272;2022-09-24T00:28:15;14.10;99.90
21035;DHT22;10676;50.848;3.272;2022-09-24T00:30:41;14.10;99.90
21035;DHT22;10676;50.848;3.272;2022-09-24T00:33:08;14.10;99.90
21035;DHT22;10676;50.848;3.272;2022-09-24T00:35:35;14.10;99.90
21035;DHT22;10676;50.848;3.272;2022-09-24T00:38:01;14.10;99.90
21035;DHT22;10676;50.848;3.272;2022-09-24T00:40:33;14.00;99.90
21035;DHT22;10676;50.848;3.272;2022-09-24T00:42:59;14.00;99.90
21035;DHT22;10676;50.848;3.272;2022-09-24T00:45:26;14.00;99.90
21035;DHT22;10676;50.848;3.272;2022-09-24T00:47:54;14.00;99.90
21035;DHT22;10676;50.848;3.272;2022-09-24T00:50:24;14.00;99.90
21035;DHT22;10676;50.848;3.272;2022-09-24T00:55:27;14.00;99.90
21035;DHT22;10676;50.848;3.272;2022-09-24T00:57:58;14.00;99.90
21035;DHT22;10676;50.848;3.272;2022-09-24T01:00:26;14.10;99.90
21035;DHT22;10676;50.848;3.272;2022-09-24T01:03:02;14.10;99.90
21035;DHT22;10676;50.848;3.272;2022-09-24T01:05:30;14.10;99.90
21035;DHT22;10676;50.848;3.272;2022-09-24T01:07:56;14.20;99.90
21035;DHT22;10676;50.848;3.272;2022-09-24T01:16:31;14.20;99.90
21035;DHT22;10676;50.848;3.272;2022-09-24T01:19:26;14.20;99.90
21035;DHT22;10676;50.848;3.272;2022-09-24T01:22:02;14.20;99.90
21035;DHT22;10676;50.848;3.272;2022-09-24T01:24:51;14.20;99.90
21035;DHT22;10676;50.848;3.272;2022-09-24T01:27:38;14.20;99.90
21035;DHT22;10676;50.848;3.272;2022-09-24T01:30:10;14.20;99.90
21035;DHT22;10676;50.848;3.272;2022-09-24T01:32:53;14.20;99.90
21035;DHT22;10676;50.848;3.272;2022-09-24T01:38:07;14.20;99.90
21035;DHT22;10676;50.848;3.272;2022-09-24T01:40:35;14.20;99.90
21035;DHT22;10676;50.848;3.272;2022-09-24T01:43:03;14.20;99.90
21035;DHT22;10676;50.848;3.272;2022-09-24T01:45:30;14.20;99.90
21035;DHT22;10676;50.848;3.272;2022-09-24T01:47:58;14.20;99.90
21035;DHT22;10676;50.848;3.272;2022-09-24T01:50:31;14.10;99.90
21035;DHT22;10676;50.848;3.272;2022-09-24T01:53:28;14.10;99.90
21035;DHT22;10676;50.848;3.272;2022-09-24T01:56:02;14.10;99.90
21035;DHT22;10676;50.848;3.272;2022-09-24T01:58:44;14.10;99.90
21035;DHT22;10676;50.848;3.272;2022-09-24T02:01:14;14.10;99.90
21035;DHT22;10676;50.848;3.272;2022-09-24T02:03:47;14.10;99.90
21035;DHT22;10676;50.848;3.272;2022-09-24T02:06:35;14.10;99.90
21035;DHT22;10676;50.848;3.272;2022-09-24T02:09:03;14.10;99.90
21035;DHT22;10676;50.848;3.272;2022-09-24T02:11:31;14.10;99.90
21035;DHT22;10676;50.848;3.272;2022-09-24T02:14:05;14.20;99.90
21035;DHT22;10676;50.848;3.272;2022-09-24T02:16:36;14.20;99.90
21035;DHT22;10676;50.848;3.272;2022-09-24T02:19:06;14.20;99.90
21035;DHT22;10676;50.848;3.272;2022-09-24T02:21:34;14.20;99.90
21035;DHT22;10676;50.848;3.272;2022-09-24T02:24:09;14.30;99.90
21035;DHT22;10676;50.848;3.272;2022-09-24T02:26:36;14.30;99.90
21035;DHT22;10676;50.848;3.272;2022-09-24T02:29:02;14.30;99.90
21035;DHT22;10676;50.848;3.272;2022-09-24T02:31:34;14.30;99.90
21035;DHT22;10676;50.848;3.272;2022-09-24T02:34:05;14.40;99.90
21035;DHT22;10676;50.848;3.272;2022-09-24T02:36:48;14.40;99.90
21035;DHT22;10676;50.848;3.272;2022-09-24T02:39:14;14.40;99.90
21035;DHT22;10676;50.848;3.272;2022-09-24T02:41:42;14.40;99.90
21035;DHT22;10676;50.848;3.272;2022-09-24T02:44:13;14.40;99.90
21035;DHT22;10676;50.848;3.272;2022-09-24T02:46:39;14.40;99.90
21035;DHT22;10676;50.848;3.272;2022-09-24T02:49:06;14.40;99.90
21035;DHT22;10676;50.848;3.272;2022-09-24T02:51:32;14.40;99.90
21035;DHT22;10676;50.848;3.272;2022-09-24T02:53:58;14.40;99.90
21035;DHT22;10676;50.848;3.272;2022-09-24T02:56:26;14.40;99.90
21035;DHT22;10676;50.848;3.272;2022-09-24T02:58:51;14.40;99.90
21035;DHT22;10676;50.848;3.272;2022-09-24T03:01:17;14.40;99.90
21035;DHT22;10676;50.848;3.272;2022-09-24T03:03:44;14.40;99.90
21035;DHT22;10676;50.848;3.272;2022-09-24T03:06:10;14.40;99.90
21035;DHT22;10676;50.848;3.272;2022-09-24T03:08:38;14.30;99.90
21035;DHT22;10676;50.848;3.272;2022-09-24T03:11:04;14.30;99.90
21035;DHT22;10676;50.848;3.272;2022-09-24T03:13:29;14.20;99.90
21035;DHT22;10676;50.848;3.272;2022-09-24T03:15:55;14.20;99.90
21035;DHT22;10676;50.848;3.272;2022-09-24T03:18:21;14.20;99.90
21035;DHT22;10676;50.848;3.272;2022-09-24T03:21:04;14.20;99.90
21035;DHT22;10676;50.848;3.272;2022-09-24T03:23:30;14.20;99.90
21035;DHT22;10676;50.848;3.272;2022-09-24T03:25:56;14.10;99.90
21035;DHT22;10676;50.848;3.272;2022-09-24T03:28:22;14.10;99.90
21035;DHT22;10676;50.848;3.272;2022-09-24T03:30:48;14.00;99.90
21035;DHT22;10676;50.848;3.272;2022-09-24T03:36:17;14.00;99.90
21035;DHT22;10676;50.848;3.272;2022-09-24T03:38:43;14.00;99.90
21035;DHT22;10676;50.848;3.272;2022-09-24T03:41:11;14.00;99.90
21035;DHT22;10676;50.848;3.272;2022-09-24T03:43:37;14.00;99.90
21035;DHT22;10676;50.848;3.272;2022-09-24T03:46:04;14.10;99.90
21035;DHT22;10676;50.848;3.272;2022-09-24T03:48:35;14.00;99.90
21035;DHT22;10676;50.848;3.272;2022-09-24T03:51:05;14.10;99.90
21035;DHT22;10676;50.848;3.272;2022-09-24T03:53:31;14.10;99.90
21035;DHT22;10676;50.848;3.272;2022-09-24T03:55:58;14.10;99.90
21035;DHT22;10676;50.848;3.272;2022-09-24T03:58:24;14.10;99.90
21035;DHT22;10676;50.848;3.272;2022-09-24T04:00:52;14.20;99.90
21035;DHT22;10676;50.848;3.272;2022-09-24T04:03:19;14.20;99.90
21035;DHT22;10676;50.848;3.272;2022-09-24T04:05:45;14.20;99.90
21035;DHT22;10676;50.848;3.272;2022-09-24T04:08:11;14.20;99.90
21035;DHT22;10676;50.848;3.272;2022-09-24T04:10:37;14.20;99.90
21035;DHT22;10676;50.848;3.272;2022-09-24T04:13:02;14.20;99.90
21035;DHT22;10676;50.848;3.272;2022-09-24T04:15:28;14.20;99.90
21035;DHT22;10676;50.848;3.272;2022-09-24T04:17:56;14.20;99.90
21035;DHT22;10676;50.848;3.272;2022-09-24T04:20:24;14.20;99.90
21035;DHT22;10676;50.848;3.272;2022-09-24T04:22:54;14.20;99.90
21035;DHT22;10676;50.848;3.272;2022-09-24T04:25:21;14.20;99.90
21035;DHT22;10676;50.848;3.272;2022-09-24T04:27:53;14.10;99.90
21035;DHT22;10676;50.848;3.272;2022-09-24T04:30:19;14.10;99.90
21035;DHT22;10676;50.848;3.272;2022-09-24T04:32:45;14.10;99.90
21035;DHT22;10676;50.848;3.272;2022-09-24T04:35:10;14.00;99.90
21035;DHT22;10676;50.848;3.272;2022-09-24T04:37:36;14.00;99.90
21035;DHT22;10676;50.848;3.272;2022-09-24T04:40:04;14.00;99.90
21035;DHT22;10676;50.848;3.272;2022-09-24T04:42:31;14.00;99.90
21035;DHT22;10676;50.848;3.272;2022-09-24T04:44:57;14.00;99.90
21035;DHT22;10676;50.848;3.272;2022-09-24T04:47:23;14.10;99.90
21035;DHT22;10676;50.848;3.272;2022-09-24T04:49:50;14.10;99.90
21035;DHT22;10676;50.848;3.272;2022-09-24T04:52:16;14.10;99.90
21035;DHT22;10676;50.848;3.272;2022-09-24T04:54:42;14.10;99.90
21035;DHT22;10676;50.848;3.272;2022-09-24T04:57:14;14.00;99.90
21035;DHT22;10676;50.848;3.272;2022-09-24T04:59:41;14.00;99.90
21035;DHT22;10676;50.848;3.272;2022-09-24T05:02:07;14.00;99.90
21035;DHT22;10676;50.848;3.272;2022-09-24T05:04:37;14.00;99.90
21035;DHT22;10676;50.848;3.272;2022-09-24T05:07:03;14.00;99.90
21035;DHT22;10676;50.848;3.272;2022-09-24T05:09:29;14.00;99.90
21035;DHT22;10676;50.848;3.272;2022-09-24T05:11:57;14.00;99.90
21035;DHT22;10676;50.848;3.272;2022-09-24T05:14:23;13.90;99.90
21035;DHT22;10676;50.848;3.272;2022-09-24T05:16:48;14.00;99.90
21035;DHT22;10676;50.848;3.272;2022-09-24T05:19:14;14.00;99.90
21035;DHT22;10676;50.848;3.272;2022-09-24T05:21:40;13.90;99.90
21035;DHT22;10676;50.848;3.272;2022-09-24T05:24:06;14.00;99.90
21035;DHT22;10676;50.848;3.272;2022-09-24T05:26:31;14.00;99.90
21035;DHT22;10676;50.848;3.272;2022-09-24T05:29:16;14.00;99.90
21035;DHT22;10676;50.848;3.272;2022-09-24T05:31:42;14.00;99.90
21035;DHT22;10676;50.848;3.272;2022-09-24T05:34:08;14.00;99.90
21035;DHT22;10676;50.848;3.272;2022-09-24T05:36:33;14.00;99.90
21035;DHT22;10676;50.848;3.272;2022-09-24T05:39:00;14.00;99.90
21035;DHT22;10676;50.848;3.272;2022-09-24T05:41:26;14.00;99.90
21035;DHT22;10676;50.848;3.272;2022-09-24T05:43:51;14.00;99.90
21035;DHT22;10676;50.848;3.272;2022-09-24T05:46:17;14.10;99.90
21035;DHT22;10676;50.848;3.272;2022-09-24T05:48:43;14.10;99.90
21035;DHT22;10676;50.848;3.272;2022-09-24T05:51:08;14.10;99.90
21035;DHT22;10676;50.848;3.272;2022-09-24T05:53:34;14.10;99.90
21035;DHT22;10676;50.848;3.272;2022-09-24T05:56:00;14.10;99.90
21035;DHT22;10676;50.848;3.272;2022-09-24T05:58:26;14.10;99.90
21035;DHT22;10676;50.848;3.272;2022-09-24T06:00:51;14.10;99.90
21035;DHT22;10676;50.848;3.272;2022-09-24T06:03:18;14.20;99.90
21035;DHT22;10676;50.848;3.272;2022-09-24T06:05:46;14.20;99.90
21035;DHT22;10676;50.848;3.272;2022-09-24T06:08:13;14.20;99.90
21035;DHT22;10676;50.848;3.272;2022-09-24T06:10:40;14.30;99.90
21035;DHT22;10676;50.848;3.272;2022-09-24T06:13:07;14.30;99.90
21035;DHT22;10676;50.848;3.272;2022-09-24T06:15:39;14.40;99.90
21035;DHT22;10676;50.848;3.272;2022-09-24T06:18:07;14.40;99.90
21035;DHT22;10676;50.848;3.272;2022-09-24T06:20:33;14.40;99.90
21035;DHT22;10676;50.848;3.272;2022-09-24T06:22:59;14.50;99.90
21035;DHT22;10676;50.848;3.272;2022-09-24T06:25:25;14.50;99.90
21035;DHT22;10676;50.848;3.272;2022-09-24T06:27:59;14.50;99.90
21035;DHT22;10676;50.848;3.272;2022-09-24T06:30:37;14.50;99.90
21035;DHT22;10676;50.848;3.272;2022-09-24T06:33:08;14.60;99.90
21035;DHT22;10676;50.848;3.272;2022-09-24T06:35:35;14.60;99.90
21035;DHT22;10676;50.848;3.272;2022-09-24T06:38:01;14.60;99.90
21035;DHT22;10676;50.848;3.272;2022-09-24T06:40:27;14.60;99.90
21035;DHT22;10676;50.848;3.272;2022-09-24T06:42:53;14.60;99.90
21035;DHT22;10676;50.848;3.272;2022-09-24T06:45:19;14.60;99.90
21035;DHT22;10676;50.848;3.272;2022-09-24T06:47:57;14.70;99.90
21035;DHT22;10676;50.848;3.272;2022-09-24T06:50:26;14.70;99.90
21035;DHT22;10676;50.848;3.272;2022-09-24T06:52:52;14.70;99.90
21035;DHT22;10676;50.848;3.272;2022-09-24T06:55:18;14.70;99.90
21035;DHT22;10676;50.848;3.272;2022-09-24T06:57:44;14.60;99.90
21035;DHT22;10676;50.848;3.272;2022-09-24T07:00:11;14.60;99.90
21035;DHT22;10676;50.848;3.272;2022-09-24T07:02:38;14.60;99.90
21035;DHT22;10676;50.848;3.272;2022-09-24T07:05:08;14.50;99.90
21035;DHT22;10676;50.848;3.272;2022-09-24T07:07:34;14.60;99.90
21035;DHT22;10676;50.848;3.272;2022-09-24T07:10:04;14.60;99.90
21035;DHT22;10676;50.848;3.272;2022-09-24T07:12:33;14.60;99.90
21035;DHT22;10676;50.848;3.272;2022-09-24T07:15:00;14.70;99.90
21035;DHT22;10676;50.848;3.272;2022-09-24T07:17:27;14.80;99.90
21035;DHT22;10676;50.848;3.272;2022-09-24T07:19:53;14.90;99.90
21035;DHT22;10676;50.848;3.272;2022-09-24T07:22:20;15.10;99.90
21035;DHT22;10676;50.848;3.272;2022-09-24T07:24:46;15.20;99.90
21035;DHT22;10676;50.848;3.272;2022-09-24T07:27:13;15.40;99.90
21035;DHT22;10676;50.848;3.272;2022-09-24T07:29:39;15.40;99.90
21035;DHT22;10676;50.848;3.272;2022-09-24T07:32:05;15.50;99.90
21035;DHT22;10676;50.848;3.272;2022-09-24T07:34:31;15.60;99.90
21035;DHT22;10676;50.848;3.272;2022-09-24T07:36:57;15.70;99.90
21035;DHT22;10676;50.848;3.272;2022-09-24T07:39:24;15.80;99.90
21035;DHT22;10676;50.848;3.272;2022-09-24T07:41:50;15.90;99.90
21035;DHT22;10676;50.848;3.272;2022-09-24T07:44:20;16.00;99.90
21035;DHT22;10676;50.848;3.272;2022-09-24T07:46:50;16.10;99.90
21035;DHT22;10676;50.848;3.272;2022-09-24T07:49:17;16.20;99.90
21035;DHT22;10676;50.848;3.272;2022-09-24T07:51:43;16.30;99.90
21035;DHT22;10676;50.848;3.272;2022-09-24T07:54:09;16.50;99.90
21035;DHT22;10676;50.848;3.272;2022-09-24T07:56:35;16.60;99.90
21035;DHT22;10676;50.848;3.272;2022-09-24T07:59:01;16.80;99.90
21035;DHT22;10676;50.848;3.272;2022-09-24T08:01:27;17.00;99.90
21035;DHT22;10676;50.848;3.272;2022-09-24T08:03:53;17.10;99.90
21035;DHT22;10676;50.848;3.272;2022-09-24T08:06:19;17.20;99.90
21035;DHT22;10676;50.848;3.272;2022-09-24T08:08:50;17.20;99.90
21035;DHT22;10676;50.848;3.272;2022-09-24T08:11:20;17.20;99.90
21035;DHT22;10676;50.848;3.272;2022-09-24T08:13:49;17.30;99.90
21035;DHT22;10676;50.848;3.272;2022-09-24T08:16:16;17.50;99.90
21035;DHT22;10676;50.848;3.272;2022-09-24T08:18:42;17.60;99.90
21035;DHT22;10676;50.848;3.272;2022-09-24T08:21:09;17.70;99.90
21035;DHT22;10676;50.848;3.272;2022-09-24T08:23:39;17.90;99.90
21035;DHT22;10676;50.848;3.272;2022-09-24T08:26:05;18.00;99.90
21035;DHT22;10676;50.848;3.272;2022-09-24T08:28:31;18.00;99.90
21035;DHT22;10676;50.848;3.272;2022-09-24T08:30:58;18.10;99.90
21035;DHT22;10676;50.848;3.272;2022-09-24T08:33:28;18.00;99.90
21035;DHT22;10676;50.848;3.272;2022-09-24T08:35:53;17.80;99.90
21035;DHT22;10676;50.848;3.272;2022-09-24T08:38:19;17.60;99.90
21035;DHT22;10676;50.848;3.272;2022-09-24T08:46:28;17.70;99.90
21035;DHT22;10676;50.848;3.272;2022-09-24T08:49:19;17.80;99.90
21035;DHT22;10676;50.848;3.272;2022-09-24T08:55:23;18.20;99.90
21035;DHT22;10676;50.848;3.272;2022-09-24T09:03:27;18.90;99.90
21035;DHT22;10676;50.848;3.272;2022-09-24T09:06:00;18.90;99.90
21035;DHT22;10676;50.848;3.272;2022-09-24T09:11:12;19.00;99.90
21035;DHT22;10676;50.848;3.272;2022-09-24T09:13:43;19.10;99.90
21035;DHT22;10676;50.848;3.272;2022-09-24T09:19:10;19.00;99.90
21035;DHT22;10676;50.848;3.272;2022-09-24T09:21:49;18.80;99.90
21035;DHT22;10676;50.848;3.272;2022-09-24T09:24:25;18.60;99.90
21035;DHT22;10676;50.848;3.272;2022-09-24T09:26:54;18.50;99.90
21035;DHT22;10676;50.848;3.272;2022-09-24T09:29:24;18.30;99.90
21035;DHT22;10676;50.848;3.272;2022-09-24T09:32:29;18.20;99.90
21035;DHT22;10676;50.848;3.272;2022-09-24T09:35:21;18.10;99.90
21035;DHT22;10676;50.848;3.272;2022-09-24T09:40:29;18.00;99.90
21035;DHT22;10676;50.848;3.272;2022-09-24T09:43:08;18.10;99.90
21035;DHT22;10676;50.848;3.272;2022-09-24T09:45:41;18.50;99.90
21035;DHT22;10676;50.848;3.272;2022-09-24T09:48:09;19.00;99.90
21035;DHT22;10676;50.848;3.272;2022-09-24T09:50:47;19.60;99.90
21035;DHT22;10676;50.848;3.272;2022-09-24T09:53:24;20.10;99.90
21035;DHT22;10676;50.848;3.272;2022-09-24T09:55:58;20.50;99.90
21035;DHT22;10676;50.848;3.272;2022-09-24T09:58:27;20.70;99.90
21035;DHT22;10676;50.848;3.272;2022-09-24T10:01:05;20.70;99.90
21035;DHT22;10676;50.848;3.272;2022-09-24T10:06:05;20.50;99.90
21035;DHT22;10676;50.848;3.272;2022-09-24T10:08:31;20.40;99.90
21035;DHT22;10676;50.848;3.272;2022-09-24T10:10:59;20.40;99.90
21035;DHT22;10676;50.848;3.272;2022-09-24T10:13:26;20.40;99.90
21035;DHT22;10676;50.848;3.272;2022-09-24T10:16:03;20.60;99.90
21035;DHT22;10676;50.848;3.272;2022-09-24T10:18:45;20.80;99.90
21035;DHT22;10676;50.848;3.272;2022-09-24T10:21:23;21.00;99.90
21035;DHT22;10676;50.848;3.272;2022-09-24T10:23:51;21.00;99.90
21035;DHT22;10676;50.848;3.272;2022-09-24T10:26:16;20.80;99.90
21035;DHT22;10676;50.848;3.272;2022-09-24T10:28:47;20.60;99.90
21035;DHT22;10676;50.848;3.272;2022-09-24T10:31:36;20.50;99.90
21035;DHT22;10676;50.848;3.272;2022-09-24T10:34:15;20.50;99.90
21035;DHT22;10676;50.848;3.272;2022-09-24T10:36:56;20.60;99.90
21035;DHT22;10676;50.848;3.272;2022-09-24T10:39:22;20.80;99.90
21035;DHT22;10676;50.848;3.272;2022-09-24T10:41:52;20.90;99.90
21035;DHT22;10676;50.848;3.272;2022-09-24T10:44:20;20.90;99.90
21035;DHT22;10676;50.848;3.272;2022-09-24T10:55:39;20.70;99.90
21035;DHT22;10676;50.848;3.272;2022-09-24T11:01:18;20.40;99.90
21035;DHT22;10676;50.848;3.272;2022-09-24T11:11:37;20.50;99.90
21035;DHT22;10676;50.848;3.272;2022-09-24T11:16:43;21.30;99.90
21035;DHT22;10676;50.848;3.272;2022-09-24T11:24:47;22.90;99.90
21035;DHT22;10676;50.848;3.272;2022-09-24T11:30:30;23.50;99.90
21035;DHT22;10676;50.848;3.272;2022-09-24T11:33:20;23.30;99.90
21035;DHT22;10676;50.848;3.272;2022-09-24T11:36:21;23.10;99.90
21035;DHT22;10676;50.848;3.272;2022-09-24T11:39:17;22.60;99.90
21035;DHT22;10676;50.848;3.272;2022-09-24T11:56:00;20.50;99.90
21035;DHT22;10676;50.848;3.272;2022-09-24T12:00:55;20.60;99.90
21035;DHT22;10676;50.848;3.272;2022-09-24T12:06:30;20.50;99.90
21035;DHT22;10676;50.848;3.272;2022-09-24T12:09:16;20.40;99.90
21035;DHT22;10676;50.848;3.272;2022-09-24T12:11:50;20.30;99.90
21035;DHT22;10676;50.848;3.272;2022-09-24T12:14:25;20.30;99.90
21035;DHT22;10676;50.848;3.272;2022-09-24T12:17:02;20.40;99.90
21035;DHT22;10676;50.848;3.272;2022-09-24T12:19:33;20.50;99.90
21035;DHT22;10676;50.848;3.272;2022-09-24T12:22:02;20.60;99.90
21035;DHT22;10676;50.848;3.272;2022-09-24T12:24:45;20.70;99.90
21035;DHT22;10676;50.848;3.272;2022-09-24T12:27:15;20.90;99.90
21035;DHT22;10676;50.848;3.272;2022-09-24T12:38:00;21.90;99.90
21035;DHT22;10676;50.848;3.272;2022-09-24T12:43:31;22.70;99.90
21035;DHT22;10676;50.848;3.272;2022-09-24T12:46:00;22.90;99.90
21035;DHT22;10676;50.848;3.272;2022-09-24T12:48:28;23.10;99.90
21035;DHT22;10676;50.848;3.272;2022-09-24T12:50:58;23.30;99.90
21035;DHT22;10676;50.848;3.272;2022-09-24T12:53:31;23.40;99.90
21035;DHT22;10676;50.848;3.272;2022-09-24T12:55:58;23.50;99.90
21035;DHT22;10676;50.848;3.272;2022-09-24T12:58:42;23.60;99.90
21035;DHT22;10676;50.848;3.272;2022-09-24T13:01:24;23.70;99.90
21035;DHT22;10676;50.848;3.272;2022-09-24T13:06:39;23.60;99.90
21035;DHT22;10676;50.848;3.272;2022-09-24T13:12:21;23.90;99.90
21035;DHT22;10676;50.848;3.272;2022-09-24T13:15:02;24.00;99.90
21035;DHT22;10676;50.848;3.272;2022-09-24T13:17:33;24.00;99.90
21035;DHT22;10676;50.848;3.272;2022-09-24T13:20:06;23.90;99.90
21035;DHT22;10676;50.848;3.272;2022-09-24T13:22:36;23.80;99.90
21035;DHT22;10676;50.848;3.272;2022-09-24T13:27:39;23.50;99.90
21035;DHT22;10676;50.848;3.272;2022-09-24T13:35:46;23.20;99.90
21035;DHT22;10676;50.848;3.272;2022-09-24T13:38:26;23.20;99.90
21035;DHT22;10676;50.848;3.272;2022-09-24T13:41:28;23.20;99.90
21035;DHT22;10676;50.848;3.272;2022-09-24T13:44:04;23.20;99.90
21035;DHT22;10676;50.848;3.272;2022-09-24T13:46:34;23.40;99.90
21035;DHT22;10676;50.848;3.272;2022-09-24T13:49:04;23.40;99.90
21035;DHT22;10676;50.848;3.272;2022-09-24T13:51:35;23.40;99.90
21035;DHT22;10676;50.848;3.272;2022-09-24T13:54:24;23.40;99.90
21035;DHT22;10676;50.848;3.272;2022-09-24T13:57:23;23.50;99.90
21035;DHT22;10676;50.848;3.272;2022-09-24T14:00:08;23.50;99.90
21035;DHT22;10676;50.848;3.272;2022-09-24T14:02:37;23.50;99.90
21035;DHT22;10676;50.848;3.272;2022-09-24T14:05:07;23.50;99.90
21035;DHT22;10676;50.848;3.272;2022-09-24T14:07:33;23.40;99.90
21035;DHT22;10676;50.848;3.272;2022-09-24T14:10:16;23.20;99.90
21035;DHT22;10676;50.848;3.272;2022-09-24T14:12:42;23.20;99.90
21035;DHT22;10676;50.848;3.272;2022-09-24T14:15:15;23.10;99.90
21035;DHT22;10676;50.848;3.272;2022-09-24T14:17:41;23.10;99.90
21035;DHT22;10676;50.848;3.272;2022-09-24T14:20:12;23.10;99.90
21035;DHT22;10676;50.848;3.272;2022-09-24T14:22:41;23.00;99.90
21035;DHT22;10676;50.848;3.272;2022-09-24T14:25:25;22.90;99.90
21035;DHT22;10676;50.848;3.272;2022-09-24T14:27:51;22.80;99.90
21035;DHT22;10676;50.848;3.272;2022-09-24T14:30:25;22.60;99.90
21035;DHT22;10676;50.848;3.272;2022-09-24T14:32:57;22.50;99.90
21035;DHT22;10676;50.848;3.272;2022-09-24T14:35:33;22.30;99.90
21035;DHT22;10676;50.848;3.272;2022-09-24T14:38:02;22.20;99.90
21035;DHT22;10676;50.848;3.272;2022-09-24T14:40:41;22.20;99.90
21035;DHT22;10676;50.848;3.272;2022-09-24T14:43:16;22.20;99.90
21035;DHT22;10676;50.848;3.272;2022-09-24T14:45:42;22.20;99.90
21035;DHT22;10676;50.848;3.272;2022-09-24T14:48:30;22.20;99.90
21035;DHT22;10676;50.848;3.272;2022-09-24T14:50:56;22.20;99.90
21035;DHT22;10676;50.848;3.272;2022-09-24T14:53:33;22.10;99.90
21035;DHT22;10676;50.848;3.272;2022-09-24T14:56:19;22.10;99.90
21035;DHT22;10676;50.848;3.272;2022-09-24T14:58:45;21.90;99.90
21035;DHT22;10676;50.848;3.272;2022-09-24T15:01:16;21.70;99.90
21035;DHT22;10676;50.848;3.272;2022-09-24T15:03:56;21.50;99.90
21035;DHT22;10676;50.848;3.272;2022-09-24T15:06:26;21.30;99.90
21035;DHT22;10676;50.848;3.272;2022-09-24T15:11:29;21.20;99.90
21035;DHT22;10676;50.848;3.272;2022-09-24T15:14:20;21.20;99.90
21035;DHT22;10676;50.848;3.272;2022-09-24T15:16:50;21.40;99.90
21035;DHT22;10676;50.848;3.272;2022-09-24T15:19:22;21.70;99.90
21035;DHT22;10676;50.848;3.272;2022-09-24T15:21:50;22.00;99.90
21035;DHT22;10676;50.848;3.272;2022-09-24T15:24:17;22.20;99.90
21035;DHT22;10676;50.848;3.272;2022-09-24T15:26:47;22.30;99.90
21035;DHT22;10676;50.848;3.272;2022-09-24T15:29:21;22.40;99.90
21035;DHT22;10676;50.848;3.272;2022-09-24T15:31:51;22.30;99.90
21035;DHT22;10676;50.848;3.272;2022-09-24T15:34:17;22.20;99.90
21035;DHT22;10676;50.848;3.272;2022-09-24T15:36:43;22.10;99.90
21035;DHT22;10676;50.848;3.272;2022-09-24T15:39:18;22.00;99.90
21035;DHT22;10676;50.848;3.272;2022-09-24T15:41:44;22.10;99.90
21035;DHT22;10676;50.848;3.272;2022-09-24T15:44:21;22.20;99.90
21035;DHT22;10676;50.848;3.272;2022-09-24T15:46:47;22.30;99.90
21035;DHT22;10676;50.848;3.272;2022-09-24T15:49:16;22.30;99.90
21035;DHT22;10676;50.848;3.272;2022-09-24T15:51:53;22.20;99.90
21035;DHT22;10676;50.848;3.272;2022-09-24T15:54:19;22.00;99.90
21035;DHT22;10676;50.848;3.272;2022-09-24T15:56:46;21.80;99.90
21035;DHT22;10676;50.848;3.272;2022-09-24T15:59:17;21.60;99.90
21035;DHT22;10676;50.848;3.272;2022-09-24T16:01:44;21.50;99.90
21035;DHT22;10676;50.848;3.272;2022-09-24T16:04:11;21.40;99.90
21035;DHT22;10676;50.848;3.272;2022-09-24T16:06:37;21.40;99.90
21035;DHT22;10676;50.848;3.272;2022-09-24T16:09:03;21.30;99.90
21035;DHT22;10676;50.848;3.272;2022-09-24T16:11:30;21.40;99.90
21035;DHT22;10676;50.848;3.272;2022-09-24T16:13:56;21.40;99.90
21035;DHT22;10676;50.848;3.272;2022-09-24T16:16:21;21.50;99.90
21035;DHT22;10676;50.848;3.272;2022-09-24T16:18:47;21.70;99.90
21035;DHT22;10676;50.848;3.272;2022-09-24T16:21:13;21.90;99.90
21035;DHT22;10676;50.848;3.272;2022-09-24T16:23:38;22.00;99.90
21035;DHT22;10676;50.848;3.272;2022-09-24T16:26:04;21.90;99.90
21035;DHT22;10676;50.848;3.272;2022-09-24T16:28:30;21.90;99.90
21035;DHT22;10676;50.848;3.272;2022-09-24T16:30:55;21.80;99.90
21035;DHT22;10676;50.848;3.272;2022-09-24T16:33:22;21.70;99.90
21035;DHT22;10676;50.848;3.272;2022-09-24T16:35:48;21.50;99.90
21035;DHT22;10676;50.848;3.272;2022-09-24T16:38:13;21.40;99.90
21035;DHT22;10676;50.848;3.272;2022-09-24T16:40:39;21.10;99.90
21035;DHT22;10676;50.848;3.272;2022-09-24T16:43:05;20.80;99.90
21035;DHT22;10676;50.848;3.272;2022-09-24T16:45:31;20.50;99.90
21035;DHT22;10676;50.848;3.272;2022-09-24T16:47:58;20.30;99.90
21035;DHT22;10676;50.848;3.272;2022-09-24T16:50:24;20.00;99.90
21035;DHT22;10676;50.848;3.272;2022-09-24T16:52:50;19.70;99.90
21035;DHT22;10676;50.848;3.272;2022-09-24T16:55:22;19.50;99.90
21035;DHT22;10676;50.848;3.272;2022-09-24T16:57:51;19.30;99.90
21035;DHT22;10676;50.848;3.272;2022-09-24T17:00:17;19.20;99.90
21035;DHT22;10676;50.848;3.272;2022-09-24T17:02:43;19.00;99.90
21035;DHT22;10676;50.848;3.272;2022-09-24T17:05:09;18.90;99.90
21035;DHT22;10676;50.848;3.272;2022-09-24T17:07:34;18.80;99.90
21035;DHT22;10676;50.848;3.272;2022-09-24T17:10:00;18.70;99.90
21035;DHT22;10676;50.848;3.272;2022-09-24T17:12:42;18.60;99.90
21035;DHT22;10676;50.848;3.272;2022-09-24T17:15:08;18.50;99.90
21035;DHT22;10676;50.848;3.272;2022-09-24T17:17:34;18.40;99.90
21035;DHT22;10676;50.848;3.272;2022-09-24T17:20:00;18.20;99.90
21035;DHT22;10676;50.848;3.272;2022-09-24T17:22:26;18.00;99.90
21035;DHT22;10676;50.848;3.272;2022-09-24T17:24:51;17.80;99.90
21035;DHT22;10676;50.848;3.272;2022-09-24T17:27:17;17.70;99.90
21035;DHT22;10676;50.848;3.272;2022-09-24T17:29:43;17.50;99.90
21035;DHT22;10676;50.848;3.272;2022-09-24T17:32:08;17.30;99.90
21035;DHT22;10676;50.848;3.272;2022-09-24T17:34:34;17.10;99.90
21035;DHT22;10676;50.848;3.272;2022-09-24T17:36:59;16.90;99.90
21035;DHT22;10676;50.848;3.272;2022-09-24T17:39:25;16.80;99.90
21035;DHT22;10676;50.848;3.272;2022-09-24T17:41:52;16.60;99.90
21035;DHT22;10676;50.848;3.272;2022-09-24T17:44:18;16.50;99.90
21035;DHT22;10676;50.848;3.272;2022-09-24T17:46:43;16.30;99.90